sensor_id;sensor_type;location;lat;lon;timestamp;temperature;humidity
69938;DHT22;57248;47.320;15.998;2023-02-01T00:02:25;-0.78;82.49
69938;DHT22;57248;47.320;15.998;2023-02-01T00:04:59;-0.81;82.42
69938;DHT22;57248;47.320;15.998;2023-02-01T00:07:30;-0.88;82.02
69938;DHT22;57248;47.320;15.998;2023-02-01T00:10:04;-0.98;83.41
69938;DHT22;57248;47.320;15.998;2023-02-01T00:12:36;-0.92;83.13
69938;DHT22;57248;47.320;15.998;2023-02-01T00:15:08;-0.83;82.59
69938;DHT22;57248;47.320;15.998;2023-02-01T00:17:40;-0.87;84.06
69938;DHT22;57248;47.320;15.998;2023-02-01T00:20:12;-0.99;84.45
69938;DHT22;57248;47.320;15.998;2023-02-01T00:22:44;-0.92;84.55
69938;DHT22;57248;47.320;15.998;2023-02-01T00:25:16;-1.02;84.71
69938;DHT22;57248;47.320;15.998;2023-02-01T00:27:49;-1.08;85.11
69938;DHT22;57248;47.320;15.998;2023-02-01T00:30:21;-0.97;84.10
69938;DHT22;57248;47.320;15.998;2023-02-01T00:32:53;-1.15;85.82
69938;DHT22;57248;47.320;15.998;2023-02-01T00:35:25;-1.11;85.19
69938;DHT22;57248;47.320;15.998;2023-02-01T00:37:58;-1.19;85.81
69938;DHT22;57248;47.320;15.998;2023-02-01T00:40:31;-1.34;85.74
69938;DHT22;57248;47.320;15.998;2023-02-01T00:43:03;-1.31;85.41
69938;DHT22;57248;47.320;15.998;2023-02-01T00:45:29;-1.28;84.93
69938;DHT22;57248;47.320;15.998;2023-02-01T00:48:01;-1.34;85.15
69938;DHT22;57248;47.320;15.998;2023-02-01T00:50:47;-1.45;85.60
69938;DHT22;57248;47.320;15.998;2023-02-01T00:53:19;-1.45;85.51
69938;DHT22;57248;47.320;15.998;2023-02-01T00:55:48;-1.43;85.67
69938;DHT22;57248;47.320;15.998;2023-02-01T00:58:20;-1.49;85.49
69938;DHT22;57248;47.320;15.998;2023-02-01T01:03:43;-1.56;85.19
69938;DHT22;57248;47.320;15.998;2023-02-01T01:06:17;-1.67;85.32
69938;DHT22;57248;47.320;15.998;2023-02-01T01:08:55;-1.70;85.59
69938;DHT22;57248;47.320;15.998;2023-02-01T01:11:31;-1.94;86.34
69938;DHT22;57248;47.320;15.998;2023-02-01T01:14:06;-1.93;86.06
69938;DHT22;57248;47.320;15.998;2023-02-01T01:16:38;-2.07;88.73
69938;DHT22;57248;47.320;15.998;2023-02-01T01:19:10;-1.98;87.90
69938;DHT22;57248;47.320;15.998;2023-02-01T01:21:43;-1.97;87.20
69938;DHT22;57248;47.320;15.998;2023-02-01T01:24:15;-2.09;87.71
69938;DHT22;57248;47.320;15.998;2023-02-01T01:26:47;-2.07;87.15
69938;DHT22;57248;47.320;15.998;2023-02-01T01:29:19;-2.19;87.73
69938;DHT22;57248;47.320;15.998;2023-02-01T01:31:51;-2.26;87.93
69938;DHT22;57248;47.320;15.998;2023-02-01T01:34:23;-2.25;88.03
69938;DHT22;57248;47.320;15.998;2023-02-01T01:36:55;-2.19;87.90
69938;DHT22;57248;47.320;15.998;2023-02-01T01:39:27;-2.34;88.49
69938;DHT22;57248;47.320;15.998;2023-02-01T01:42:00;-2.35;88.60
69938;DHT22;57248;47.320;15.998;2023-02-01T01:47:41;-2.35;87.75
69938;DHT22;57248;47.320;15.998;2023-02-01T01:50:16;-2.34;87.31
69938;DHT22;57248;47.320;15.998;2023-02-01T01:52:58;-2.39;87.62
69938;DHT22;57248;47.320;15.998;2023-02-01T01:55:35;-2.49;88.39
69938;DHT22;57248;47.320;15.998;2023-02-01T01:58:16;-2.52;88.56
69938;DHT22;57248;47.320;15.998;2023-02-01T02:00:48;-2.55;87.72
69938;DHT22;57248;47.320;15.998;2023-02-01T02:03:29;-2.70;89.67
69938;DHT22;57248;47.320;15.998;2023-02-01T02:06:10;-2.77;89.02
69938;DHT22;57248;47.320;15.998;2023-02-01T02:08:45;-2.76;89.07
69938;DHT22;57248;47.320;15.998;2023-02-01T02:11:17;-2.76;89.34
69938;DHT22;57248;47.320;15.998;2023-02-01T02:13:51;-2.66;88.70
69938;DHT22;57248;47.320;15.998;2023-02-01T02:16:37;-2.77;88.05
69938;DHT22;57248;47.320;15.998;2023-02-01T02:36:43;-3.04;88.36
69938;DHT22;57248;47.320;15.998;2023-02-01T02:39:28;-3.04;89.92
69938;DHT22;57248;47.320;15.998;2023-02-01T02:42:14;-3.11;90.62
69938;DHT22;57248;47.320;15.998;2023-02-01T02:45:20;-3.07;89.33
69938;DHT22;57248;47.320;15.998;2023-02-01T02:48:25;-3.18;90.04
69938;DHT22;57248;47.320;15.998;2023-02-01T02:51:11;-3.11;90.01
69938;DHT22;57248;47.320;15.998;2023-02-01T02:54:15;-3.27;90.47
69938;DHT22;57248;47.320;15.998;2023-02-01T02:57:09;-3.25;89.95
69938;DHT22;57248;47.320;15.998;2023-02-01T03:00:03;-3.27;90.83
69938;DHT22;57248;47.320;15.998;2023-02-01T03:02:55;-3.41;89.64
69938;DHT22;57248;47.320;15.998;2023-02-01T03:05:47;-3.31;89.79
69938;DHT22;57248;47.320;15.998;2023-02-01T03:08:23;-3.42;90.01
69938;DHT22;57248;47.320;15.998;2023-02-01T03:11:05;-3.32;91.83
69938;DHT22;57248;47.320;15.998;2023-02-01T03:13:43;-3.38;91.18
69938;DHT22;57248;47.320;15.998;2023-02-01T03:16:28;-3.31;91.33
69938;DHT22;57248;47.320;15.998;2023-02-01T03:21:57;-3.35;91.93
69938;DHT22;57248;47.320;15.998;2023-02-01T03:24:44;-3.01;91.12
69938;DHT22;57248;47.320;15.998;2023-02-01T03:27:32;-2.83;89.42
69938;DHT22;57248;47.320;15.998;2023-02-01T03:30:14;-3.07;90.04
69938;DHT22;57248;47.320;15.998;2023-02-01T03:32:52;-2.87;90.36
69938;DHT22;57248;47.320;15.998;2023-02-01T03:41:26;-2.76;88.41
69938;DHT22;57248;47.320;15.998;2023-02-01T03:46:51;-2.81;89.46
69938;DHT22;57248;47.320;15.998;2023-02-01T03:49:29;-2.87;88.87
69938;DHT22;57248;47.320;15.998;2023-02-01T03:52:28;-2.96;89.96
69938;DHT22;57248;47.320;15.998;2023-02-01T03:55:03;-2.97;90.18
69938;DHT22;57248;47.320;15.998;2023-02-01T03:57:46;-2.94;90.20
69938;DHT22;57248;47.320;15.998;2023-02-01T04:00:22;-3.04;90.53
69938;DHT22;57248;47.320;15.998;2023-02-01T04:02:56;-3.07;90.16
69938;DHT22;57248;47.320;15.998;2023-02-01T04:05:28;-3.15;90.69
69938;DHT22;57248;47.320;15.998;2023-02-01T04:08:04;-3.09;90.04
69938;DHT22;57248;47.320;15.998;2023-02-01T04:10:36;-3.19;89.85
69938;DHT22;57248;47.320;15.998;2023-02-01T04:13:08;-3.14;90.67
69938;DHT22;57248;47.320;15.998;2023-02-01T04:15:40;-3.21;91.40
69938;DHT22;57248;47.320;15.998;2023-02-01T04:18:12;-3.37;91.39
69938;DHT22;57248;47.320;15.998;2023-02-01T04:20:38;-3.32;91.12
69938;DHT22;57248;47.320;15.998;2023-02-01T04:23:09;-3.45;90.52
69938;DHT22;57248;47.320;15.998;2023-02-01T04:25:41;-3.25;91.15
69938;DHT22;57248;47.320;15.998;2023-02-01T04:28:13;-3.45;91.54
69938;DHT22;57248;47.320;15.998;2023-02-01T04:30:46;-3.38;90.88
69938;DHT22;57248;47.320;15.998;2023-02-01T04:33:17;-3.39;91.13
69938;DHT22;57248;47.320;15.998;2023-02-01T04:35:49;-3.49;91.80
69938;DHT22;57248;47.320;15.998;2023-02-01T04:38:21;-3.37;91.19
69938;DHT22;57248;47.320;15.998;2023-02-01T04:40:53;-3.39;90.98
69938;DHT22;57248;47.320;15.998;2023-02-01T04:43:26;-3.47;91.36
69938;DHT22;57248;47.320;15.998;2023-02-01T04:45:57;-3.55;90.96
69938;DHT22;57248;47.320;15.998;2023-02-01T04:48:29;-3.60;91.71
69938;DHT22;57248;47.320;15.998;2023-02-01T04:51:01;-3.51;92.34
69938;DHT22;57248;47.320;15.998;2023-02-01T04:53:42;-3.41;91.87
69938;DHT22;57248;47.320;15.998;2023-02-01T04:56:13;-3.38;92.00
69938;DHT22;57248;47.320;15.998;2023-02-01T04:58:45;-3.35;92.30
69938;DHT22;57248;47.320;15.998;2023-02-01T05:01:17;-3.19;91.56
69938;DHT22;57248;47.320;15.998;2023-02-01T05:03:50;-3.12;90.88
69938;DHT22;57248;47.320;15.998;2023-02-01T05:06:22;-3.41;91.72
69938;DHT22;57248;47.320;15.998;2023-02-01T05:08:54;-3.37;91.97
69938;DHT22;57248;47.320;15.998;2023-02-01T05:11:26;-3.31;91.95
69938;DHT22;57248;47.320;15.998;2023-02-01T05:14:17;-3.05;91.23
69938;DHT22;57248;47.320;15.998;2023-02-01T05:16:49;-3.30;91.13
69938;DHT22;57248;47.320;15.998;2023-02-01T05:19:15;-3.05;91.23
69938;DHT22;57248;47.320;15.998;2023-02-01T05:21:46;-3.24;90.67
69938;DHT22;57248;47.320;15.998;2023-02-01T05:24:18;-3.38;91.13
69938;DHT22;57248;47.320;15.998;2023-02-01T05:26:53;-3.55;90.95
69938;DHT22;57248;47.320;15.998;2023-02-01T05:29:25;-3.47;91.39
69938;DHT22;57248;47.320;15.998;2023-02-01T05:31:57;-3.58;91.46
69938;DHT22;57248;47.320;15.998;2023-02-01T05:34:29;-3.48;91.65
69938;DHT22;57248;47.320;15.998;2023-02-01T05:37:01;-3.54;91.85
69938;DHT22;57248;47.320;15.998;2023-02-01T05:39:33;-3.52;91.27
69938;DHT22;57248;47.320;15.998;2023-02-01T05:42:05;-3.55;91.95
69938;DHT22;57248;47.320;15.998;2023-02-01T05:44:37;-3.68;92.06
69938;DHT22;57248;47.320;15.998;2023-02-01T05:47:09;-3.75;91.59
69938;DHT22;57248;47.320;15.998;2023-02-01T05:49:41;-3.76;92.10
69938;DHT22;57248;47.320;15.998;2023-02-01T05:52:20;-3.62;92.37
69938;DHT22;57248;47.320;15.998;2023-02-01T05:54:52;-3.82;92.26
69938;DHT22;57248;47.320;15.998;2023-02-01T05:57:18;-3.89;93.50
69938;DHT22;57248;47.320;15.998;2023-02-01T05:59:49;-3.80;92.88
69938;DHT22;57248;47.320;15.998;2023-02-01T06:02:21;-3.79;92.82
69938;DHT22;57248;47.320;15.998;2023-02-01T06:04:55;-3.90;93.61
69938;DHT22;57248;47.320;15.998;2023-02-01T06:07:27;-3.73;92.96
69938;DHT22;57248;47.320;15.998;2023-02-01T06:09:59;-3.86;91.33
69938;DHT22;57248;47.320;15.998;2023-02-01T06:12:32;-3.85;91.91
69938;DHT22;57248;47.320;15.998;2023-02-01T06:15:05;-3.90;93.40
69938;DHT22;57248;47.320;15.998;2023-02-01T06:17:37;-3.69;92.75
69938;DHT22;57248;47.320;15.998;2023-02-01T06:20:12;-3.96;92.29
69938;DHT22;57248;47.320;15.998;2023-02-01T06:22:44;-3.65;92.61
69938;DHT22;57248;47.320;15.998;2023-02-01T06:25:16;-3.91;93.14
69938;DHT22;57248;47.320;15.998;2023-02-01T06:27:48;-3.94;93.54
69938;DHT22;57248;47.320;15.998;2023-02-01T06:30:14;-3.82;92.76
69938;DHT22;57248;47.320;15.998;2023-02-01T06:32:50;-3.89;92.46
69938;DHT22;57248;47.320;15.998;2023-02-01T06:35:24;-3.93;93.19
69938;DHT22;57248;47.320;15.998;2023-02-01T06:37:57;-3.82;93.57
69938;DHT22;57248;47.320;15.998;2023-02-01T06:40:29;-3.59;92.75
69938;DHT22;57248;47.320;15.998;2023-02-01T06:43:01;-3.60;92.25
69938;DHT22;57248;47.320;15.998;2023-02-01T06:45:33;-3.72;92.84
69938;DHT22;57248;47.320;15.998;2023-02-01T06:48:05;-3.59;92.63
69938;DHT22;57248;47.320;15.998;2023-02-01T06:50:37;-3.65;92.38
69938;DHT22;57248;47.320;15.998;2023-02-01T06:53:16;-3.68;92.56
69938;DHT22;57248;47.320;15.998;2023-02-01T06:55:56;-3.63;92.91
69938;DHT22;57248;47.320;15.998;2023-02-01T06:58:30;-3.63;92.05
69938;DHT22;57248;47.320;15.998;2023-02-01T07:01:06;-3.56;92.74
69938;DHT22;57248;47.320;15.998;2023-02-01T07:03:38;-3.62;92.85
69938;DHT22;57248;47.320;15.998;2023-02-01T07:06:10;-3.52;92.81
69938;DHT22;57248;47.320;15.998;2023-02-01T07:08:43;-3.49;93.37
69938;DHT22;57248;47.320;15.998;2023-02-01T07:11:17;-3.32;92.52
69938;DHT22;57248;47.320;15.998;2023-02-01T07:13:43;-3.07;92.01
69938;DHT22;57248;47.320;15.998;2023-02-01T07:16:18;-3.11;91.10
69938;DHT22;57248;47.320;15.998;2023-02-01T07:18:52;-2.97;91.47
69938;DHT22;57248;47.320;15.998;2023-02-01T07:21:24;-3.07;91.38
69938;DHT22;57248;47.320;15.998;2023-02-01T07:23:57;-3.11;91.08
69938;DHT22;57248;47.320;15.998;2023-02-01T07:26:29;-2.97;92.26
69938;DHT22;57248;47.320;15.998;2023-02-01T07:29:01;-2.94;91.62
69938;DHT22;57248;47.320;15.998;2023-02-01T07:31:33;-2.84;91.51
69938;DHT22;57248;47.320;15.998;2023-02-01T07:34:05;-2.76;91.54
69938;DHT22;57248;47.320;15.998;2023-02-01T07:36:38;-2.65;91.21
69938;DHT22;57248;47.320;15.998;2023-02-01T07:39:10;-2.57;91.30
69938;DHT22;57248;47.320;15.998;2023-02-01T07:41:42;-2.42;91.15
69938;DHT22;57248;47.320;15.998;2023-02-01T07:44:14;-2.26;90.72
69938;DHT22;57248;47.320;15.998;2023-02-01T07:46:46;-1.47;89.02
69938;DHT22;57248;47.320;15.998;2023-02-01T07:49:25;-1.57;89.74
69938;DHT22;57248;47.320;15.998;2023-02-01T07:51:57;-1.39;89.15
69938;DHT22;57248;47.320;15.998;2023-02-01T07:54:36;-1.19;88.08
69938;DHT22;57248;47.320;15.998;2023-02-01T07:57:09;-1.05;88.05
69938;DHT22;57248;47.320;15.998;2023-02-01T07:59:43;-1.04;88.33
69938;DHT22;57248;47.320;15.998;2023-02-01T08:02:53;-0.83;87.45
69938;DHT22;57248;47.320;15.998;2023-02-01T08:05:26;-0.43;86.44
69938;DHT22;57248;47.320;15.998;2023-02-01T08:07:58;-0.29;87.35
69938;DHT22;57248;47.320;15.998;2023-02-01T08:10:30;-0.07;86.84
69938;DHT22;57248;47.320;15.998;2023-02-01T08:13:02;0.04;85.70
69938;DHT22;57248;47.320;15.998;2023-02-01T08:15:35;-0.06;87.14
69938;DHT22;57248;47.320;15.998;2023-02-01T08:18:07;-0.29;86.93
69938;DHT22;57248;47.320;15.998;2023-02-01T08:20:41;0.12;86.22
69938;DHT22;57248;47.320;15.998;2023-02-01T08:23:14;0.36;85.96
69938;DHT22;57248;47.320;15.998;2023-02-01T08:25:47;-0.05;87.21
69938;DHT22;57248;47.320;15.998;2023-02-01T08:28:19;0.23;87.10
69938;DHT22;57248;47.320;15.998;2023-02-01T08:30:51;0.30;86.90
69938;DHT22;57248;47.320;15.998;2023-02-01T08:33:24;0.63;86.87
69938;DHT22;57248;47.320;15.998;2023-02-01T08:35:56;0.88;86.83
69938;DHT22;57248;47.320;15.998;2023-02-01T08:38:22;0.77;86.16
69938;DHT22;57248;47.320;15.998;2023-02-01T08:40:54;0.77;86.19
69938;DHT22;57248;47.320;15.998;2023-02-01T08:43:25;0.67;87.24
69938;DHT22;57248;47.320;15.998;2023-02-01T08:45:57;0.57;86.94
69938;DHT22;57248;47.320;15.998;2023-02-01T08:48:46;1.31;84.41
69938;DHT22;57248;47.320;15.998;2023-02-01T08:51:25;1.13;84.85
69938;DHT22;57248;47.320;15.998;2023-02-01T08:53:57;1.66;81.26
69938;DHT22;57248;47.320;15.998;2023-02-01T08:56:29;1.41;83.08
69938;DHT22;57248;47.320;15.998;2023-02-01T08:59:01;1.69;82.87
69938;DHT22;57248;47.320;15.998;2023-02-01T09:01:33;1.89;81.71
69938;DHT22;57248;47.320;15.998;2023-02-01T09:04:05;1.79;80.86
69938;DHT22;57248;47.320;15.998;2023-02-01T09:06:40;3.04;79.10
69938;DHT22;57248;47.320;15.998;2023-02-01T09:09:12;2.58;79.93
69938;DHT22;57248;47.320;15.998;2023-02-01T09:11:44;4.06;75.49
69938;DHT22;57248;47.320;15.998;2023-02-01T09:14:17;5.49;72.45
69938;DHT22;57248;47.320;15.998;2023-02-01T09:16:42;3.88;73.12
69938;DHT22;57248;47.320;15.998;2023-02-01T09:19:14;5.53;71.55
69938;DHT22;57248;47.320;15.998;2023-02-01T09:21:47;7.55;65.37
69938;DHT22;57248;47.320;15.998;2023-02-01T09:24:13;6.52;66.15
69938;DHT22;57248;47.320;15.998;2023-02-01T09:26:44;8.22;61.52
69938;DHT22;57248;47.320;15.998;2023-02-01T09:29:16;8.62;59.66
69938;DHT22;57248;47.320;15.998;2023-02-01T09:31:48;6.22;65.50
69938;DHT22;57248;47.320;15.998;2023-02-01T09:34:15;6.84;65.25
69938;DHT22;57248;47.320;15.998;2023-02-01T09:36:47;7.71;62.36
69938;DHT22;57248;47.320;15.998;2023-02-01T09:39:19;9.39;58.66
69938;DHT22;57248;47.320;15.998;2023-02-01T09:45:03;8.71;55.44
69938;DHT22;57248;47.320;15.998;2023-02-01T09:47:39;7.71;57.36
69938;DHT22;57248;47.320;15.998;2023-02-01T09:50:30;8.00;56.24
69938;DHT22;57248;47.320;15.998;2023-02-01T09:53:09;8.07;56.45
69938;DHT22;57248;47.320;15.998;2023-02-01T09:55:51;8.91;53.50
69938;DHT22;57248;47.320;15.998;2023-02-01T09:58:37;10.23;51.43
69938;DHT22;57248;47.320;15.998;2023-02-01T10:01:24;8.98;52.74
69938;DHT22;57248;47.320;15.998;2023-02-01T10:04:03;9.37;51.02
69938;DHT22;57248;47.320;15.998;2023-02-01T10:17:50;11.49;47.83
69938;DHT22;57248;47.320;15.998;2023-02-01T10:23:42;13.51;44.41
69938;DHT22;57248;47.320;15.998;2023-02-01T10:26:22;13.97;40.03
69938;DHT22;57248;47.320;15.998;2023-02-01T10:29:03;14.84;40.06
69938;DHT22;57248;47.320;15.998;2023-02-01T10:31:36;13.75;40.03
69938;DHT22;57248;47.320;15.998;2023-02-01T10:34:26;13.61;40.55
69938;DHT22;57248;47.320;15.998;2023-02-01T10:37:23;13.12;38.74
69938;DHT22;57248;47.320;15.998;2023-02-01T10:39:57;13.94;39.50
69938;DHT22;57248;47.320;15.998;2023-02-01T10:42:31;15.24;37.66
69938;DHT22;57248;47.320;15.998;2023-02-01T10:45:03;15.27;37.12
69938;DHT22;57248;47.320;15.998;2023-02-01T10:47:35;15.03;36.58
69938;DHT22;57248;47.320;15.998;2023-02-01T10:53:00;17.40;34.55
69938;DHT22;57248;47.320;15.998;2023-02-01T10:58:29;17.32;33.10
69938;DHT22;57248;47.320;15.998;2023-02-01T11:01:15;16.54;35.53
69938;DHT22;57248;47.320;15.998;2023-02-01T11:04:01;15.57;34.39
69938;DHT22;57248;47.320;15.998;2023-02-01T11:09:50;17.14;34.10
69938;DHT22;57248;47.320;15.998;2023-02-01T11:15:19;16.05;34.69
69938;DHT22;57248;47.320;15.998;2023-02-01T11:17:52;17.39;33.71
69938;DHT22;57248;47.320;15.998;2023-02-01T11:20:38;17.60;31.94
69938;DHT22;57248;47.320;15.998;2023-02-01T11:23:20;18.15;31.74
69938;DHT22;57248;47.320;15.998;2023-02-01T11:25:55;18.66;31.65
69938;DHT22;57248;47.320;15.998;2023-02-01T11:28:31;19.34;30.85
69938;DHT22;57248;47.320;15.998;2023-02-01T11:31:07;17.15;32.37
69938;DHT22;57248;47.320;15.998;2023-02-01T11:33:52;19.42;30.57
69938;DHT22;57248;47.320;15.998;2023-02-01T11:36:31;18.73;31.14
69938;DHT22;57248;47.320;15.998;2023-02-01T11:44:21;18.55;31.14
69938;DHT22;57248;47.320;15.998;2023-02-01T11:46:53;19.61;30.49
69938;DHT22;57248;47.320;15.998;2023-02-01T11:49:27;20.50;28.75
69938;DHT22;57248;47.320;15.998;2023-02-01T11:52:04;19.76;29.02
69938;DHT22;57248;47.320;15.998;2023-02-01T11:57:57;17.91;31.26
69938;DHT22;57248;47.320;15.998;2023-02-01T12:00:55;20.02;28.36
69938;DHT22;57248;47.320;15.998;2023-02-01T12:04:12;19.35;28.68
69938;DHT22;57248;47.320;15.998;2023-02-01T12:06:52;20.33;28.83
69938;DHT22;57248;47.320;15.998;2023-02-01T12:12:30;16.92;29.86
69938;DHT22;57248;47.320;15.998;2023-02-01T12:18:44;17.74;30.75
69938;DHT22;57248;47.320;15.998;2023-02-01T12:21:36;15.27;33.88
69938;DHT22;57248;47.320;15.998;2023-02-01T12:38:19;15.54;33.90
69938;DHT22;57248;47.320;15.998;2023-02-01T12:44:06;15.83;33.21
69938;DHT22;57248;47.320;15.998;2023-02-01T12:46:44;17.66;31.16
69938;DHT22;57248;47.320;15.998;2023-02-01T12:49:50;19.08;29.41
69938;DHT22;57248;47.320;15.998;2023-02-01T12:52:42;18.35;29.37
69938;DHT22;57248;47.320;15.998;2023-02-01T12:58:15;17.46;29.63
69938;DHT22;57248;47.320;15.998;2023-02-01T13:00:58;15.61;31.68
69938;DHT22;57248;47.320;15.998;2023-02-01T13:06:13;19.47;28.39
69938;DHT22;57248;47.320;15.998;2023-02-01T13:08:56;17.01;31.23
69938;DHT22;57248;47.320;15.998;2023-02-01T13:11:34;16.65;32.44
69938;DHT22;57248;47.320;15.998;2023-02-01T13:17:21;15.97;33.82
69938;DHT22;57248;47.320;15.998;2023-02-01T13:22:46;17.50;32.15
69938;DHT22;57248;47.320;15.998;2023-02-01T13:25:46;17.42;33.71
69938;DHT22;57248;47.320;15.998;2023-02-01T13:29:01;16.03;34.26
69938;DHT22;57248;47.320;15.998;2023-02-01T13:32:07;16.02;33.85
69938;DHT22;57248;47.320;15.998;2023-02-01T13:41:04;15.47;35.53
69938;DHT22;57248;47.320;15.998;2023-02-01T13:43:40;16.21;36.01
69938;DHT22;57248;47.320;15.998;2023-02-01T13:46:16;14.84;36.95
69938;DHT22;57248;47.320;15.998;2023-02-01T13:48:50;13.75;39.19
69938;DHT22;57248;47.320;15.998;2023-02-01T13:56:59;13.73;39.47
69938;DHT22;57248;47.320;15.998;2023-02-01T14:08:11;13.46;38.83
69938;DHT22;57248;47.320;15.998;2023-02-01T14:13:30;11.68;43.12
69938;DHT22;57248;47.320;15.998;2023-02-01T14:23:55;10.99;44.13
69938;DHT22;57248;47.320;15.998;2023-02-01T14:34:38;10.62;43.97
69938;DHT22;57248;47.320;15.998;2023-02-01T14:39:57;10.38;44.84
69938;DHT22;57248;47.320;15.998;2023-02-01T14:50:46;9.78;48.86
69938;DHT22;57248;47.320;15.998;2023-02-01T14:53:22;8.68;50.17
69938;DHT22;57248;47.320;15.998;2023-02-01T15:01:27;7.81;54.01
69938;DHT22;57248;47.320;15.998;2023-02-01T15:04:13;7.76;54.54
69938;DHT22;57248;47.320;15.998;2023-02-01T15:06:53;7.62;54.65
69938;DHT22;57248;47.320;15.998;2023-02-01T15:09:37;7.73;54.21
69938;DHT22;57248;47.320;15.998;2023-02-01T15:14:43;7.52;55.02
69938;DHT22;57248;47.320;15.998;2023-02-01T15:17:27;7.27;55.22
69938;DHT22;57248;47.320;15.998;2023-02-01T15:20:24;7.47;54.91
69938;DHT22;57248;47.320;15.998;2023-02-01T15:23:02;7.21;54.86
69938;DHT22;57248;47.320;15.998;2023-02-01T15:25:37;7.15;55.13
69938;DHT22;57248;47.320;15.998;2023-02-01T15:28:04;7.23;54.44
69938;DHT22;57248;47.320;15.998;2023-02-01T15:30:37;7.20;54.87
69938;DHT22;57248;47.320;15.998;2023-02-01T15:36:39;7.14;54.77
69938;DHT22;57248;47.320;15.998;2023-02-01T15:38:45;6.94;56.08
69938;DHT22;57248;47.320;15.998;2023-02-01T15:41:21;6.73;57.23
69938;DHT22;57248;47.320;15.998;2023-02-01T15:44:27;6.52;59.71
69938;DHT22;57248;47.320;15.998;2023-02-01T15:47:05;6.39;61.17
69938;DHT22;57248;47.320;15.998;2023-02-01T15:49:40;6.26;61.30
69938;DHT22;57248;47.320;15.998;2023-02-01T15:52:40;6.21;63.14
69938;DHT22;57248;47.320;15.998;2023-02-01T15:55:38;6.03;64.35
69938;DHT22;57248;47.320;15.998;2023-02-01T15:58:19;5.93;64.87
69938;DHT22;57248;47.320;15.998;2023-02-01T16:00:54;5.69;66.13
69938;DHT22;57248;47.320;15.998;2023-02-01T16:03:39;5.60;66.84
69938;DHT22;57248;47.320;15.998;2023-02-01T16:08:59;5.60;67.05
69938;DHT22;57248;47.320;15.998;2023-02-01T16:11:41;5.42;67.84
69938;DHT22;57248;47.320;15.998;2023-02-01T16:14:18;5.38;67.40
69938;DHT22;57248;47.320;15.998;2023-02-01T16:16:43;5.49;65.55
69938;DHT22;57248;47.320;15.998;2023-02-01T16:19:16;5.53;64.58
69938;DHT22;57248;47.320;15.998;2023-02-01T16:21:47;5.70;63.37
69938;DHT22;57248;47.320;15.998;2023-02-01T16:24:21;5.81;61.71
69938;DHT22;57248;47.320;15.998;2023-02-01T16:26:55;5.80;62.54
69938;DHT22;57248;47.320;15.998;2023-02-01T16:29:26;5.80;62.86
69938;DHT22;57248;47.320;15.998;2023-02-01T16:31:59;5.66;64.18
69938;DHT22;57248;47.320;15.998;2023-02-01T16:34:31;5.59;65.07
69938;DHT22;57248;47.320;15.998;2023-02-01T16:37:03;5.62;64.45
69938;DHT22;57248;47.320;15.998;2023-02-01T16:39:36;5.67;63.98
69938;DHT22;57248;47.320;15.998;2023-02-01T16:42:15;5.77;62.30
69938;DHT22;57248;47.320;15.998;2023-02-01T16:44:46;5.84;61.54
69938;DHT22;57248;47.320;15.998;2023-02-01T16:47:21;5.81;61.47
69938;DHT22;57248;47.320;15.998;2023-02-01T16:49:54;5.78;61.81
69938;DHT22;57248;47.320;15.998;2023-02-01T16:52:35;5.87;61.32
69938;DHT22;57248;47.320;15.998;2023-02-01T16:55:12;5.78;61.28
69938;DHT22;57248;47.320;15.998;2023-02-01T16:57:45;5.91;60.09
69938;DHT22;57248;47.320;15.998;2023-02-01T17:00:17;5.75;60.71
69938;DHT22;57248;47.320;15.998;2023-02-01T17:02:48;5.84;59.51
69938;DHT22;57248;47.320;15.998;2023-02-01T17:05:22;5.86;59.49
69938;DHT22;57248;47.320;15.998;2023-02-01T17:07:56;5.87;58.96
69938;DHT22;57248;47.320;15.998;2023-02-01T17:10:30;5.86;58.93
69938;DHT22;57248;47.320;15.998;2023-02-01T17:12:56;6.00;56.67
69938;DHT22;57248;47.320;15.998;2023-02-01T17:15:32;6.08;56.49
69938;DHT22;57248;47.320;15.998;2023-02-01T17:18:14;5.98;57.19
69938;DHT22;57248;47.320;15.998;2023-02-01T17:20:47;6.03;56.74
69938;DHT22;57248;47.320;15.998;2023-02-01T17:23:20;6.01;55.72
69938;DHT22;57248;47.320;15.998;2023-02-01T17:25:52;6.04;55.67
69938;DHT22;57248;47.320;15.998;2023-02-01T17:28:18;6.08;54.75
69938;DHT22;57248;47.320;15.998;2023-02-01T17:30:50;6.01;55.63
69938;DHT22;57248;47.320;15.998;2023-02-01T17:33:31;5.89;56.48
69938;DHT22;57248;47.320;15.998;2023-02-01T17:36:05;5.93;55.64
69938;DHT22;57248;47.320;15.998;2023-02-01T17:38:38;5.95;55.54
69938;DHT22;57248;47.320;15.998;2023-02-01T17:41:12;6.01;55.11
69938;DHT22;57248;47.320;15.998;2023-02-01T17:43:44;6.00;54.76
69938;DHT22;57248;47.320;15.998;2023-02-01T17:46:17;6.14;61.64
69938;DHT22;57248;47.320;15.998;2023-02-01T17:48:49;5.54;60.68
69938;DHT22;57248;47.320;15.998;2023-02-01T17:51:26;5.38;61.17
69938;DHT22;57248;47.320;15.998;2023-02-01T17:54:14;5.32;60.62
69938;DHT22;57248;47.320;15.998;2023-02-01T17:56:48;5.39;59.93
69938;DHT22;57248;47.320;15.998;2023-02-01T17:59:20;5.42;59.91
69938;DHT22;57248;47.320;15.998;2023-02-01T18:01:52;5.29;60.98
69938;DHT22;57248;47.320;15.998;2023-02-01T18:04:24;5.21;61.05
69938;DHT22;57248;47.320;15.998;2023-02-01T18:06:56;5.21;60.45
69938;DHT22;57248;47.320;15.998;2023-02-01T18:09:28;5.33;58.62
69938;DHT22;57248;47.320;15.998;2023-02-01T18:12:01;5.40;58.01
69938;DHT22;57248;47.320;15.998;2023-02-01T18:14:36;5.57;58.93
69938;DHT22;57248;47.320;15.998;2023-02-01T18:17:08;5.44;57.36
69938;DHT22;57248;47.320;15.998;2023-02-01T18:19:40;5.67;55.74
69938;DHT22;57248;47.320;15.998;2023-02-01T18:22:18;5.73;56.00
69938;DHT22;57248;47.320;15.998;2023-02-01T18:24:50;5.75;56.25
69938;DHT22;57248;47.320;15.998;2023-02-01T18:27:22;5.57;57.65
69938;DHT22;57248;47.320;15.998;2023-02-01T18:29:55;5.53;58.47
69938;DHT22;57248;47.320;15.998;2023-02-01T18:32:28;5.35;60.27
69938;DHT22;57248;47.320;15.998;2023-02-01T18:35:00;5.29;61.28
69938;DHT22;57248;47.320;15.998;2023-02-01T18:37:33;5.19;62.37
69938;DHT22;57248;47.320;15.998;2023-02-01T18:40:05;4.99;63.80
69938;DHT22;57248;47.320;15.998;2023-02-01T18:42:39;5.08;64.24
69938;DHT22;57248;47.320;15.998;2023-02-01T18:45:25;4.94;65.55
69938;DHT22;57248;47.320;15.998;2023-02-01T18:47:58;4.95;66.25
69938;DHT22;57248;47.320;15.998;2023-02-01T18:50:32;4.74;67.73
69938;DHT22;57248;47.320;15.998;2023-02-01T18:53:16;4.70;67.95
69938;DHT22;57248;47.320;15.998;2023-02-01T18:55:58;4.67;67.96
69938;DHT22;57248;47.320;15.998;2023-02-01T18:58:31;4.71;67.39
69938;DHT22;57248;47.320;15.998;2023-02-01T19:01:08;4.67;67.16
69938;DHT22;57248;47.320;15.998;2023-02-01T19:03:45;4.71;65.69
69938;DHT22;57248;47.320;15.998;2023-02-01T19:06:19;4.65;65.99
69938;DHT22;57248;47.320;15.998;2023-02-01T19:08:51;4.71;65.55
69938;DHT22;57248;47.320;15.998;2023-02-01T19:11:25;4.75;64.85